Gordon, Nebraska
Current Conditions -  °F | °C
As of 1:52 AM on Saturday 20 Dec 2014 (Local Time) from KIEN Reporting Station
Clear Clear  
Wind Chill: 16°   Ceiling: Unl
Heat Index: 22°   Visibility: 10mi
Dew Point: 16°   Wind: 5mph
Humidity: 78%   Direction: 270°W
Pressure: 29.94"   Gusts: NA
Location:  42.8°N, 102.2°W
Report Text: KIEN 200852Z AUTO 27004KT 10SM CLR M06/M09 A2994 RMK AO2 SLP164 T10561089 55005
Loading
Personal Weather Stations






























Interactive Weather Map New forecast layout! Learn more

10-Day Weather Forecast

Advertisements
Track Severe Weather on mobile